AirNav   ATP
 
 695 users online  

KADT Atwood-Rawlins County City-County Airport
Atwood, Kansas, USA

GOING TO ATWOOD?


FAA INFORMATION EFFECTIVE 08 NOVEMBER 2018

Location

FAA Identifier: ADT
Lat/Long: 39-50-25.2186N / 101-02-32.9385W
39-50.420310N / 101-02.548975W
39.8403385 / -101.0424829
(estimated)
Elevation: 2990.7 ft. / 911.6 m (surveyed)
Variation: 09E (1985)
From city: 2 miles N of ATWOOD, KS
Time zone: UTC -6 (UTC -5 during Daylight Saving Time)
Zip code: 67730

Airport Operations

Airport use: Open to the public
Activation date: 12/1946
Control tower: no
ARTCC: DENVER CENTER
FSS: WICHITA FLIGHT SERVICE STATION
NOTAMs facility: ICT (NOTAM-D service available)
Attendance: UNATNDD
Wind indicator: lighted, LGTD WIND CONES LCTD 1000 FT FM AER 16 & 34, LEFT SIDE.
Segmented circle: yes
Lights: ACTVT MIRL RY 16/34 AND PAPI RYS 16 & 34 - CTAF.
Beacon: white-green (lighted land airport)
Operates sunset to sunrise.

Airport Communications

CTAF/UNICOM: 122.7
WX AWOS-3: 118.675 (785-626-3572)
  • APCH/DEP SVC PRVDD BY DENVER ARTCC ON FREQS 132.7/226.675 (GOODLAND RCAG).

Nearby radio navigation aids

VOR radial/distance  VOR name  Freq  Var
MCKr215/30.0MC COOK VOR/DME115.3008E
HCTr177/37.2HAYES CENTER VORTAC117.7011E

 
NDB name  Hdg/Dist  Freq  Var  ID
WHEATFIELD353/19.840808EJDM .--- -.. --
OBERLIN266/23.334106EOIN --- .. -.
ST FRANCIS073/34.138606ESYF ... -.-- ..-.

Airport Services

Fuel available: 100LL
24 HR SELF-SERVE FUEL.
Parking: hangars and tiedowns
Bottled oxygen: NONE
Bulk oxygen: NONE

Runway Information

Runway 16/34

Dimensions: 5000 x 75 ft. / 1524 x 23 m
Surface: asphalt, in good condition
Weight bearing capacity: 
Single wheel: 12.5
Double wheel: 12.5
Runway edge lights: medium intensity
RUNWAY 16  RUNWAY 34
Latitude: 39-50.894647N39-50.077330N
Longitude: 101-02.659207W101-02.530767W
Elevation: 2990.7 ft.2926.7 ft.
Traffic pattern: leftleft
Runway heading: 164 magnetic, 173 true344 magnetic, 353 true
Markings: nonprecision, in good conditionnonprecision, in good condition
Visual slope indicator: 2-light PAPI on left (3.00 degrees glide path)2-light PAPI on right (3.00 degrees glide path)
Runway end identifier lights: yesyes
Touchdown point: yes, no lightsyes, no lights

Runway 3/21

Dimensions: 2400 x 100 ft. / 732 x 30 m
Surface: turf, in good condition
ACUTE DIFFERENCE IN SFC ELEV. AT INTERSECTION WITH RY 16/34. SUGGEST OPERATIONS BE CONDUCTED EAST OF THAT INTERSECTION.
Gradient: NE
RUNWAY 3  RUNWAY 21
Latitude: 39-50.144942N39-50.422017N
Longitude: 101-02.635977W101-02.270257W
Elevation: 2929.5 ft.2946.3 ft.
Gradient: 0.7% UP
Traffic pattern: leftleft
Runway heading: 037 magnetic, 046 true217 magnetic, 226 true
Touchdown point: yes, no lightsyes, no lights
Obstructions: 28 ft. pline, marked, 950 ft. from runway, 33:1 slope to clearnone

Airport Ownership and Management from official FAA records

Ownership: Publicly-owned
Owner: CITY OF ATWOOD & RAWLINS CO.
ATWOOD, KS 67730
Phone 785-626-3344
Manager: CHRIS TIEMEYER
12323 HWY 25
ATWOOD, KS 67730
Phone (785) 626-0297

Airport Operational Statistics

Aircraft based on the field: 23
Single engine airplanes: 17
Multi engine airplanes: 1
Ultralights: 5
    
Aircraft operations: avg 33/day *
67% local general aviation
33% transient general aviation
* for 12-month period ending 16 September 2018

Additional Remarks

PUBLIC PHONE AVBL 24 HRS.

Instrument Procedures

NOTE: All procedures below are presented as PDF files. If you need a reader for these files, you should download the free Adobe Reader.

NOT FOR NAVIGATION. Please procure official charts for flight.
FAA instrument procedures published for use from 8 November 2018 at 0901Z to 6 December 2018 at 0900Z.

 
IAPs - Instrument Approach Procedures
RNAV (GPS) RWY 16   download (227KB)
NOTE: Special Take-Off Minimums/Departure Procedures apply   download (147KB)

Other nearby airports with instrument procedures:

KOIN - Oberlin Municipal Airport (23 nm E)
KCBK - Shalz Field Airport (25 nm S)
KMCK - Mc Cook Ben Nelson Regional Airport (30 nm NE)
KSYF - Cheyenne County Municipal Airport (35 nm W)
KGLD - Renner Field (Goodland Municipal Airport) (41 nm SW)
 
Loc | Ops | Rwys | IFR | FBO | Links
Com | Nav | Svcs | Stats | Notes

Kansas City Aviation Department
 
Area around KADT (Atwood-Rawlins County City-County Airport)
 
Road maps at: MapQuest Bing Google
 
Aerial photo
WARNING: Photo may not be current or correct
Aerial photo of KADT (Atwood-Rawlins County City-County Airport)
Photo taken 05-Jul-2013
looking south.

Do you have a better or more recent aerial photo of Atwood-Rawlins County City-County Airport that you would like to share? If so, please send us your photo.

 
Sectional chart

 
Airport distance calculator
Flying to Atwood-Rawlins County City-County Airport? Find the distance to fly.

From to KADT

Sunrise and sunset
Times for 18-Nov-2018
 Local
(UTC-6)
 Zulu
(UTC)
Morning civil twilight07:0413:04
Sunrise07:3313:33
Sunset17:2523:25
Evening civil twilight17:5423:54

Current date and time
Zulu (UTC)  19-Nov-2018 04:16:42
Local (UTC-6)  18-Nov-2018 22:16:42
 
METAR
KOIN 
23nm E 
190355Z AUTO 23006KT 10SM CLR M05/M06 A3007 RMK AO1 T10501065
KCBK 
24nm S 
190355Z AUTO 23006KT 10SM CLR M05/M06 A3005 RMK AO2
KMCK 
30nm NE 
190353Z AUTO 25008KT 10SM CLR M03/M06 A3002 RMK AO2 SLP196 T10331056
KSYF 
36nm W 
190355Z AUTO 24006KT 10SM CLR M05/M06 A3004 RMK AO2 T10511065
KGLD 
42nm SW 
190353Z AUTO 24011KT 10SM CLR M02/M04 A3002 RMK AO2 SLP191 T10221044
TAF
KMCK 
30nm NE 
181734Z 1818/1918 24007KT P6SM SKC FM190000 21005KT P6SM SKC FM190400 24006KT P6SM FEW250 FM191000 30009KT P6SM BKN110 FM191600 32011KT P6SM SCT060
NOTAMs
Click for the latest NOTAMs
NOTAMs are issued by the DoD/FAA and will open in a separate window not controlled by AirNav.

 

 
 

FBO, Fuel Providers, and Aircraft Ground Support

  
 Business Name 
 
 Contact 
 
 Services / Description 
 
Fuel Prices
 
Comments
  
Atwood/Rawlins County Airport 785-626-9014
785-626-9462
[email]
Aviation fuel, Aircraft parking (ramp or tiedown), Hangars, Hangar leasing / sales, Passenger terminal and lounge, Courtesy transportation, Public telephone, ...
 
Courtesy car  
 
More info about Atwood/Rawlins County Airport
independent
100LL
SS $4.50 
 Updated 16-Nov-2018
 
   1 read write
SS=Self service
Update Fuel Prices
 

Would you like to see your business listed on this page?

 If your business provides an interesting product or service to pilots, flight crews, aircraft, or users of the Atwood-Rawlins County City-County Airport, you should consider listing it here.  To start the listing process, click on the button below
 
Add a business
 

Other Pages about Atwood-Rawlins County City-County Airport

Update a link
 
Copyright © AirNav, LLC. All rights reserved. Privacy Policy  Contact